createdAt,value
2023-05-24T00:00:10.089Z,63.85
2023-05-24T00:05:38.129Z,63.90
2023-05-24T00:10:43.066Z,63.81
2023-05-24T00:15:47.117Z,63.88
2023-05-24T00:20:52.389Z,63.67
2023-05-24T00:25:56.293Z,63.47
2023-05-24T00:31:00.031Z,63.71
2023-05-24T00:36:04.807Z,64.11
2023-05-24T00:41:33.618Z,65.04
2023-05-24T00:46:38.479Z,66.26
2023-05-24T00:51:42.289Z,67.02
2023-05-24T00:56:46.303Z,67.48
2023-05-24T01:09:07.712Z,66.65
2023-05-24T01:14:32.383Z,65.90
2023-05-24T01:20:07.196Z,65.71
2023-05-24T01:25:33.035Z,65.96
2023-05-24T01:30:37.861Z,66.07
2023-05-24T01:36:37.616Z,66.14
2023-05-24T01:42:21.353Z,66.67
2023-05-24T01:47:27.902Z,67.29
2023-05-24T01:52:36.526Z,67.31
2023-05-24T01:57:44.597Z,67.19
2023-05-24T02:02:49.559Z,66.84
2023-05-24T02:07:53.383Z,67.31
2023-05-24T02:12:57.345Z,67.89
2023-05-24T02:18:02.062Z,68.58
2023-05-24T02:23:32.042Z,68.95
2023-05-24T02:28:36.438Z,68.86
2023-05-24T02:33:40.979Z,68.71
2023-05-24T02:38:44.696Z,68.53
2023-05-24T02:43:49.042Z,68.29
2023-05-24T02:48:52.878Z,68.16
2023-05-24T02:53:56.617Z,68.06
2023-05-24T02:59:00.831Z,67.79
2023-05-24T03:04:09.034Z,67.56
2023-05-24T03:09:13.493Z,67.48
2023-05-24T03:14:17.874Z,67.69
2023-05-24T03:19:21.967Z,67.83
2023-05-24T03:24:32.167Z,67.98
2023-05-24T03:29:36.115Z,67.63
2023-05-24T03:34:39.842Z,67.09
2023-05-24T03:39:43.684Z,66.48
2023-05-24T03:44:53.704Z,66.22
2023-05-24T03:49:58.600Z,66.38
2023-05-24T03:55:02.487Z,65.66
2023-05-24T04:00:07.967Z,64.81
2023-05-24T04:05:37.200Z,64.52
2023-05-24T04:10:42.451Z,64.43
2023-05-24T04:15:46.548Z,64.27
2023-05-24T04:20:50.470Z,63.54
2023-05-24T04:25:54.007Z,63.38
2023-05-24T04:30:58.263Z,62.97
2023-05-24T04:36:02.312Z,62.55
2023-05-24T04:41:06.244Z,62.37
2023-05-24T04:46:10.366Z,62.15
2023-05-24T04:51:14.663Z,61.28
2023-05-24T04:56:20.588Z,60.85
2023-05-24T05:02:47.305Z,60.87
2023-05-24T05:37:47.487Z,59.89
2023-05-24T05:43:41.806Z,59.35
2023-05-24T05:48:46.561Z,58.79
2023-05-24T05:53:52.609Z,58.14
2023-05-24T05:58:56.720Z,57.76
2023-05-24T06:04:07.042Z,57.52
2023-05-24T06:09:36.073Z,57.31
2023-05-24T06:28:56.161Z,54.70
2023-05-24T06:34:44.029Z,54.40
2023-05-24T06:50:28.493Z,52.65
2023-05-24T06:55:32.420Z,51.60
2023-05-24T07:00:44.038Z,50.60
2023-05-24T07:05:48.721Z,48.96
2023-05-24T07:10:58.984Z,47.32
2023-05-24T07:16:02.748Z,44.69
2023-05-24T07:21:06.717Z,44.59
2023-05-24T07:26:11.016Z,44.56
2023-05-24T07:31:21.595Z,45.07
2023-05-24T07:36:27.890Z,44.74
2023-05-24T07:41:38.672Z,43.53
2023-05-24T08:12:07.796Z,36.79
2023-05-24T08:18:03.912Z,36.75
2023-05-24T08:24:35.879Z,36.63
2023-05-24T08:43:50.808Z,37.59
2023-05-24T08:49:47.123Z,37.13
2023-05-24T08:54:54.352Z,35.24
2023-05-24T09:07:36.508Z,33.33
2023-05-24T09:13:41.227Z,33.09
2023-05-24T09:18:58.110Z,33.52
2023-05-24T09:24:04.475Z,32.33
2023-05-24T09:30:31.117Z,32.35
2023-05-24T09:35:36.881Z,31.69
2023-05-24T09:42:03.247Z,32.01
2023-05-24T09:47:07.373Z,32.17
2023-05-24T09:52:37.647Z,32.03
2023-05-24T10:12:47.314Z,28.91
2023-05-24T10:17:57.043Z,29.68
2023-05-24T10:23:08.336Z,29.57
2023-05-24T10:29:07.301Z,30.49
2023-05-24T10:34:12.180Z,30.78
2023-05-24T10:40:10.476Z,31.27
2023-05-24T10:46:37.447Z,31.56
2023-05-24T11:06:51.276Z,30.91
2023-05-24T11:15:25.719Z,29.78
2023-05-24T11:21:21.196Z,28.87
2023-05-24T11:26:29.113Z,29.17
2023-05-24T11:32:26.986Z,29.64
2023-05-24T11:52:18.144Z,27.86
2023-05-24T11:58:38.863Z,27.08
2023-05-24T12:03:43.317Z,28.75
2023-05-24T12:08:49.099Z,28.85
2023-05-24T12:14:44.441Z,28.33
2023-05-24T12:19:52.237Z,28.74
2023-05-24T12:24:58.659Z,28.93
2023-05-24T12:30:10.535Z,29.49
2023-05-24T12:35:15.147Z,29.85
2023-05-24T12:55:10.236Z,31.73
2023-05-24T13:00:17.992Z,31.19
2023-05-24T13:05:23.255Z,32.24
2023-05-24T13:10:28.492Z,32.94
2023-05-24T13:15:32.968Z,33.10
2023-05-24T13:20:43.920Z,32.81
2023-05-24T13:26:14.868Z,33.24
2023-05-24T13:32:09.067Z,33.36
2023-05-24T13:37:14.228Z,33.71
2023-05-24T13:42:28.600Z,33.44
2023-05-24T13:55:19.901Z,34.29
2023-05-24T14:07:47.199Z,34.12
2023-05-24T14:28:43.374Z,32.09
2023-05-24T14:34:38.776Z,32.52
2023-05-24T14:47:07.656Z,32.54
2023-05-24T14:52:27.971Z,32.82
2023-05-24T15:04:36.526Z,34.17
2023-05-24T15:09:52.837Z,33.60
2023-05-24T15:23:36.865Z,34.28
2023-05-24T15:43:37.810Z,34.94
2023-05-24T15:49:29.849Z,34.83
2023-05-24T15:55:23.673Z,34.35
2023-05-24T16:00:27.694Z,33.99
2023-05-24T16:05:56.823Z,33.52
2023-05-24T16:18:09.400Z,34.33
2023-05-24T16:24:30.690Z,34.81
2023-05-24T16:29:37.089Z,35.31
2023-05-24T16:43:11.740Z,36.23
2023-05-24T16:55:41.423Z,35.92
2023-05-24T17:00:45.978Z,35.54
2023-05-24T17:06:05.992Z,35.92
2023-05-24T17:11:11.971Z,36.53
2023-05-24T17:16:18.018Z,37.12
2023-05-24T17:30:09.065Z,38.26
2023-05-24T17:35:13.399Z,38.96
2023-05-24T17:41:10.604Z,39.15
2023-05-24T17:46:42.601Z,39.57
2023-05-24T17:51:48.732Z,39.76
2023-05-24T17:56:54.305Z,40.27
2023-05-24T18:01:58.951Z,40.83
2023-05-24T18:07:03.751Z,41.52
2023-05-24T18:12:09.667Z,42.21
2023-05-24T18:17:15.548Z,42.97
2023-05-24T18:30:19.110Z,44.22
2023-05-24T18:36:00.153Z,45.03
2023-05-24T18:41:06.567Z,46.38
2023-05-24T18:47:11.131Z,47.33
2023-05-24T18:53:31.765Z,48.26
2023-05-24T19:05:59.972Z,48.47
2023-05-24T19:23:13.505Z,48.74
2023-05-24T19:28:19.613Z,49.40
2023-05-24T19:47:40.375Z,54.67
2023-05-24T19:57:27.502Z,56.28
2023-05-24T20:02:36.372Z,56.26
2023-05-24T20:22:10.484Z,55.49
2023-05-24T20:31:40.106Z,56.13
2023-05-24T20:44:46.372Z,55.50
2023-05-24T21:00:23.837Z,57.66
2023-05-24T21:05:28.148Z,58.06
2023-05-24T21:10:38.629Z,58.32
2023-05-24T21:15:45.492Z,59.01
2023-05-24T21:20:49.867Z,59.38
2023-05-24T21:26:19.448Z,60.05
2023-05-24T21:31:29.094Z,58.72
2023-05-24T21:36:34.976Z,58.67
2023-05-24T21:41:44.483Z,58.78
2023-05-24T21:46:48.967Z,58.72
2023-05-24T21:51:58.964Z,58.75
2023-05-24T21:57:04.205Z,58.74
2023-05-24T22:02:08.117Z,59.03
2023-05-24T22:07:11.739Z,59.47
2023-05-24T22:12:15.584Z,60.21
2023-05-24T22:17:19.667Z,60.67
2023-05-24T22:22:23.404Z,61.55
2023-05-24T22:27:27.700Z,62.60
2023-05-24T22:32:33.770Z,63.21
2023-05-24T22:37:39.617Z,63.85
2023-05-24T22:42:43.539Z,64.25
2023-05-24T22:47:50.087Z,64.46
2023-05-24T22:52:57.009Z,65.03
2023-05-24T22:58:02.253Z,65.97
2023-05-24T23:03:08.255Z,66.95
2023-05-24T23:08:13.628Z,68.16
2023-05-24T23:13:19.387Z,68.25
2023-05-24T23:18:26.448Z,68.31
2023-05-24T23:23:30.624Z,68.60
2023-05-24T23:28:34.370Z,69.02
2023-05-24T23:34:55.709Z,69.71
2023-05-24T23:40:02.715Z,70.07
2023-05-24T23:45:07.634Z,70.49
2023-05-24T23:50:12.418Z,70.57
2023-05-24T23:55:16.712Z,70.80
